This is the latest recevied weather packets stored in our database for station/object LRSB. If no packets are shown the sender has not sent any weather packets the latest 10 day(s).
| Time | Temp. | Humidity | Pressure | Rain* | Wind** | Luminosity | Snow |
|---|---|---|---|---|---|---|---|
| 1777798092 | 12.22° C | 38% | 1023 hPa | - | - | - | - |
| 1777797191 | 12.22° C | 38% | 1023 hPa | - | - | - | - |
| 1777796292 | 11.11° C | 41% | 1023 hPa | - | - | - | - |
| 1777795402 | 11.11° C | 41% | 1023 hPa | - | - | - | - |
| 1777794491 | 10° C | 50% | 1023 hPa | - | - | - | - |
| 1777793591 | 10° C | 50% | 1023 hPa | - | - | - | - |
| 1777792694 | 10° C | 54% | 1023 hPa | - | - | - | - |
| 1777791792 | 10° C | 54% | 1023 hPa | - | - | - | - |
| 1777790892 | 7.78° C | 62% | 1023 hPa | - | - | - | - |
| 1777790028 | 7.78° C | 62% | 1023 hPa | - | - | - | - |
| 1777789092 | 7.22° C | 71% | 1023 hPa | - | - | - | - |
| 1777788191 | 7.22° C | 71% | 1023 hPa | - | - | - | - |
| 1777787291 | 6.11° C | 71% | 1023 hPa | - | - | - | - |
| 1777786391 | 6.11° C | 71% | 1023 hPa | - | - | - | - |
| 1777785491 | 5° C | 76% | 1023 hPa | - | - | - | - |
| 1777784591 | 5° C | 76% | 1023 hPa | - | - | - | - |
| 1777783691 | 3.89° C | 81% | 1022 hPa | - | - | - | - |
| 1777782792 | 3.89° C | 81% | 1022 hPa | - | - | - | - |
| 1777781891 | 2.22° C | 87% | 1022 hPa | - | - | - | - |
| 1777781014 | 2.22° C | 87% | 1022 hPa | - | - | - | - |
| 1777780093 | -1.11° C | 93% | 1022 hPa | - | - | - | - |
| 1777779191 | -1.11° C | 93% | 1022 hPa | - | - | - | - |
| 1777778291 | 2.22° C | 87% | 1022 hPa | - | - | - | - |
| 1777777391 | 2.22° C | 87% | 1022 hPa | - | - | - | - |
| 1777776506 | 2.22° C | 81% | 1022 hPa | - | - | - | - |
* Rain since midnight (hover to see other rain measurements)
** Current wind speed in m/s (hover to see current wind gust speed)